Huggins, Missouri
Current Conditions -  °F | °C
As of 7:58 AM on Thursday 30 Oct 2014 (Local Time) from KTBN Reporting Station
Haze Haze  
Wind Chill: 34°   Ceiling: Unl
Heat Index: 38°   Visibility: 3mi
Dew Point: 33°   Wind: 6mph
Humidity: 83%   Direction: 160°SSE
Pressure: 30.1"   Gusts: NA
Location:  37.32°N, 92.2°W
Report Text: KTBN 301258Z AUTO 16005KT 3SM HZ CLR 03/01 A3010 RMK AO2 SLP199 T00340007
Loading
Personal Weather Stations






























Interactive Weather Map
Tropical Storm Tracking
New forecast layout! Learn more

10-Day Weather Forecast

Advertisements
Track Severe Weather on mobile